createdAt,value
2022-08-05T00:00:50.577Z,77.92
2022-08-05T00:01:50.443Z,77.95
2022-08-05T00:02:52.275Z,78.22
2022-08-05T00:03:50.766Z,78.16
2022-08-05T00:04:55.408Z,78.33
2022-08-05T00:06:06.487Z,78.35
2022-08-05T00:06:52.095Z,78.06
2022-08-05T00:07:59.862Z,78.04
2022-08-05T00:08:52.425Z,78.05
2022-08-05T00:09:51.405Z,77.93
2022-08-05T00:10:51.514Z,78.15
2022-08-05T00:11:56.084Z,78.07
2022-08-05T00:12:56.850Z,78.37
2022-08-05T00:13:52.869Z,78.01
2022-08-05T00:14:52.083Z,77.95
2022-08-05T00:15:55.779Z,77.78
2022-08-05T00:16:53.970Z,77.72
2022-08-05T00:17:52.388Z,77.73
2022-08-05T00:18:52.514Z,78.01
2022-08-05T00:20:02.778Z,78.05
2022-08-05T00:20:53.775Z,78.07
2022-08-05T00:21:53.889Z,78.02
2022-08-05T00:22:59.652Z,78.01
2022-08-05T00:24:10.708Z,78.26
2022-08-05T00:24:55.174Z,78.66
2022-08-05T00:25:54.014Z,78.90
2022-08-05T00:26:53.549Z,78.99
2022-08-05T00:27:53.672Z,79.16
2022-08-05T00:28:53.797Z,79.26
2022-08-05T00:29:54.067Z,79.33
2022-08-05T00:30:54.097Z,79.46
2022-08-05T00:32:13.507Z,79.52
2022-08-05T00:32:55.340Z,79.71
2022-08-05T00:34:56.128Z,79.81
2022-08-05T00:35:06.948Z,79.81
2022-08-05T00:36:16.083Z,80.00
2022-08-05T00:37:10.880Z,80.08
2022-08-05T00:37:56.021Z,80.39
2022-08-05T00:38:55.215Z,80.64
2022-08-05T00:39:57.952Z,80.82
2022-08-05T00:40:55.550Z,80.94
2022-08-05T00:41:55.905Z,80.95
2022-08-05T00:42:55.650Z,81.01
2022-08-05T00:43:55.802Z,81.12
2022-08-05T00:44:55.938Z,81.29
2022-08-05T00:45:56.147Z,81.40
2022-08-05T00:47:02.232Z,81.40
2022-08-05T00:48:05.631Z,81.42
2022-08-05T00:48:57.502Z,81.39
2022-08-05T00:49:56.571Z,81.30
2022-08-05T00:50:56.919Z,81.28
2022-08-05T00:51:56.808Z,81.21
2022-08-05T00:52:56.958Z,81.19
2022-08-05T00:54:02.711Z,81.32
2022-08-05T00:54:58.335Z,81.61
2022-08-05T00:55:57.555Z,81.67
2022-08-05T00:56:57.488Z,81.57
2022-08-05T00:57:58.972Z,81.38
2022-08-05T00:58:57.748Z,81.38
2022-08-05T00:59:57.886Z,81.38
2022-08-05T01:00:58.251Z,81.45
2022-08-05T01:01:58.155Z,81.44
2022-08-05T01:02:59.891Z,81.41
2022-08-05T01:03:58.365Z,81.36
2022-08-05T01:04:58.495Z,81.37
2022-08-05T01:05:58.616Z,81.51
2022-08-05T01:06:58.749Z,81.62
2022-08-05T01:08:42.323Z,81.75
2022-08-05T01:08:59.965Z,81.96
2022-08-05T01:09:59.125Z,82.17
2022-08-05T01:10:59.256Z,82.32
2022-08-05T01:12:04.498Z,82.32
2022-08-05T01:13:05.228Z,82.44
2022-08-05T01:14:00.655Z,82.60
2022-08-05T01:14:59.788Z,82.93
2022-08-05T01:15:59.917Z,83.37
2022-08-05T01:17:00.043Z,83.62
2022-08-05T01:18:00.314Z,83.77
2022-08-05T01:19:00.830Z,83.85
2022-08-05T01:20:02.001Z,83.86
2022-08-05T01:21:00.583Z,84.00
2022-08-05T01:22:00.733Z,84.05
2022-08-05T01:23:00.914Z,84.11
2022-08-05T01:24:02.074Z,84.18
2022-08-05T01:25:02.112Z,84.26
2022-08-05T01:26:01.223Z,84.34
2022-08-05T01:27:01.357Z,84.42
2022-08-05T01:28:02.503Z,84.45
2022-08-05T01:29:03.574Z,84.62
2022-08-05T01:30:01.882Z,84.84
2022-08-05T01:31:03.053Z,85.04
2022-08-05T01:32:02.004Z,85.33
2022-08-05T01:33:02.142Z,85.52
2022-08-05T01:34:02.282Z,85.86
2022-08-05T01:35:02.471Z,86.07
2022-08-05T01:36:02.563Z,86.17
2022-08-05T01:37:02.691Z,86.20
2022-08-05T01:38:02.822Z,86.19
2022-08-05T01:39:02.996Z,86.22
2022-08-05T01:40:03.203Z,86.30
2022-08-05T01:41:03.234Z,86.31
2022-08-05T01:42:03.378Z,86.17
2022-08-05T01:43:03.670Z,86.40
2022-08-05T01:44:03.650Z,86.52
2022-08-05T01:45:04.840Z,86.62
2022-08-05T01:46:07.236Z,86.66
2022-08-05T01:47:05.185Z,86.67
2022-08-05T01:48:04.108Z,86.86
2022-08-05T01:49:22.633Z,86.99
2022-08-05T01:50:05.954Z,87.02
2022-08-05T01:51:12.317Z,86.96
2022-08-05T01:52:17.636Z,86.93
2022-08-05T01:53:05.705Z,87.04
2022-08-05T01:54:04.821Z,87.08
2022-08-05T01:55:04.948Z,87.07
2022-08-05T01:56:05.147Z,87.09
2022-08-05T01:58:11.972Z,87.31
2022-08-05T01:58:12.975Z,87.86
2022-08-05T01:59:06.597Z,88.35
2022-08-05T02:00:05.669Z,88.45
2022-08-05T02:01:06.971Z,88.31
2022-08-05T02:02:05.931Z,88.26
2022-08-05T02:03:06.997Z,88.74
2022-08-05T02:04:07.144Z,89.02
2022-08-05T02:05:06.256Z,89.07
2022-08-05T02:06:33.360Z,89.29
2022-08-05T02:07:07.566Z,89.53
2022-08-05T02:08:06.615Z,89.62
2022-08-05T02:09:06.733Z,89.71
2022-08-05T02:10:07.907Z,89.75
2022-08-05T02:11:06.946Z,89.81
2022-08-05T02:12:10.178Z,90.00
2022-08-05T02:13:16.207Z,90.39
2022-08-05T02:14:08.356Z,90.68
2022-08-05T02:15:07.500Z,91.02
2022-08-05T02:16:08.646Z,91.21
2022-08-05T02:17:08.763Z,91.34
2022-08-05T02:18:32.992Z,91.44
2022-08-05T02:19:08.975Z,91.58
2022-08-05T02:20:08.155Z,91.61
2022-08-05T02:21:15.033Z,91.63
2022-08-05T02:22:09.401Z,91.68
2022-08-05T02:23:09.491Z,91.78
2022-08-05T02:24:08.624Z,91.84
2022-08-05T02:25:08.811Z,91.93
2022-08-05T02:26:08.993Z,91.95
2022-08-05T02:27:10.444Z,91.89
2022-08-05T02:28:09.212Z,91.82
2022-08-05T02:29:09.291Z,91.74
2022-08-05T02:30:10.456Z,91.71
2022-08-05T02:31:14.818Z,91.69
2022-08-05T02:32:10.877Z,91.84
2022-08-05T02:33:09.854Z,91.89
2022-08-05T02:34:10.204Z,91.87
2022-08-05T02:35:14.230Z,91.90
2022-08-05T02:36:10.230Z,91.96
2022-08-05T02:37:10.360Z,92.06
2022-08-05T02:38:10.621Z,92.15
2022-08-05T02:39:11.657Z,92.26
2022-08-05T02:40:10.739Z,92.26
2022-08-05T02:41:17.221Z,92.26
2022-08-05T02:42:12.019Z,92.28
2022-08-05T02:43:12.269Z,92.34
2022-08-05T02:44:13.013Z,92.40
2022-08-05T02:45:11.390Z,92.47
2022-08-05T02:46:11.540Z,92.51
2022-08-05T02:47:12.660Z,92.56
2022-08-05T02:48:12.870Z,92.64
2022-08-05T02:49:11.950Z,92.69
2022-08-05T02:50:12.258Z,92.74
2022-08-05T02:51:12.233Z,92.74
2022-08-05T02:52:13.646Z,92.72
2022-08-05T02:53:16.082Z,92.72
2022-08-05T02:54:36.190Z,92.69
2022-08-05T02:55:13.927Z,92.71
2022-08-05T02:56:18.613Z,92.70
2022-08-05T02:58:10.279Z,92.75
2022-08-05T02:58:14.269Z,92.81
2022-08-05T02:59:13.266Z,92.85
2022-08-05T03:00:13.478Z,92.87
2022-08-05T03:01:13.614Z,92.87
2022-08-05T03:02:13.666Z,92.88
2022-08-05T03:03:13.756Z,92.89
2022-08-05T03:04:14.351Z,92.88
2022-08-05T03:05:14.075Z,92.89
2022-08-05T03:06:53.575Z,92.90
2022-08-05T03:07:17.615Z,93.01
2022-08-05T03:08:16.530Z,93.11
2022-08-05T03:09:17.660Z,93.16
2022-08-05T03:10:15.707Z,93.18
2022-08-05T03:11:56.530Z,93.22
2022-08-05T03:12:15.874Z,93.18
2022-08-05T03:13:16.656Z,93.20
2022-08-05T03:14:15.166Z,93.23
2022-08-05T03:15:15.296Z,93.22
2022-08-05T03:16:15.773Z,93.27
2022-08-05T03:17:15.579Z,93.23
2022-08-05T03:18:17.441Z,93.27
2022-08-05T03:19:29.486Z,93.28
2022-08-05T03:20:16.893Z,93.22
2022-08-05T03:21:16.243Z,93.19
2022-08-05T03:22:19.030Z,93.20
2022-08-05T03:23:17.294Z,93.30
2022-08-05T03:24:16.414Z,93.29
2022-08-05T03:25:32.786Z,93.29
2022-08-05T03:26:31.390Z,93.35
2022-08-05T03:27:17.774Z,93.32
2022-08-05T03:28:18.884Z,93.33
2022-08-05T03:29:17.278Z,93.37
2022-08-05T03:30:17.161Z,93.38
2022-08-05T03:31:25.868Z,93.36
2022-08-05T03:32:18.550Z,93.41
2022-08-05T03:33:17.532Z,93.47
2022-08-05T03:34:17.657Z,93.49
2022-08-05T03:35:17.782Z,93.52
2022-08-05T03:36:17.905Z,93.53
2022-08-05T03:37:19.230Z,93.60
2022-08-05T03:38:32.715Z,93.62
2022-08-05T03:39:20.098Z,93.68
2022-08-05T03:40:31.431Z,93.72
2022-08-05T03:41:19.560Z,93.76
2022-08-05T03:42:18.639Z,93.78
2022-08-05T03:44:08.597Z,93.81
2022-08-05T03:44:20.199Z,93.83
2022-08-05T03:45:21.535Z,93.83
2022-08-05T03:46:19.159Z,93.83
2022-08-05T03:47:19.288Z,93.78
2022-08-05T03:48:21.817Z,93.71
2022-08-05T03:49:19.559Z,93.61
2022-08-05T03:50:19.659Z,93.54
2022-08-05T03:52:36.465Z,93.53
2022-08-05T03:52:37.588Z,93.53
2022-08-05T03:55:50.403Z,93.56
2022-08-05T03:55:52.302Z,93.57
2022-08-05T03:56:04.042Z,93.57
2022-08-05T03:56:26.901Z,93.61
2022-08-05T03:57:21.557Z,93.67
2022-08-05T03:58:21.807Z,93.70
2022-08-05T03:59:21.819Z,93.73
2022-08-05T04:00:20.906Z,93.70
2022-08-05T04:01:21.137Z,93.65
2022-08-05T04:02:38.888Z,93.63
2022-08-05T04:03:28.304Z,93.65
2022-08-05T04:04:22.426Z,93.72
2022-08-05T04:05:23.147Z,93.80
2022-08-05T04:06:21.746Z,93.75
2022-08-05T04:07:22.093Z,93.77
2022-08-05T04:08:34.972Z,93.76
2022-08-05T04:09:25.930Z,93.72
2022-08-05T04:10:22.306Z,93.72
2022-08-05T04:11:22.345Z,93.71
2022-08-05T04:12:23.499Z,93.70
2022-08-05T04:13:22.587Z,93.73
2022-08-05T04:14:29.864Z,93.77
2022-08-05T04:15:24.481Z,93.83
2022-08-05T04:16:25.234Z,93.85
2022-08-05T04:17:24.258Z,93.84
2022-08-05T04:18:25.582Z,93.85
2022-08-05T04:19:23.522Z,93.89
2022-08-05T04:20:23.506Z,93.94
2022-08-05T04:22:08.358Z,94.00
2022-08-05T04:22:24.762Z,94.04
2022-08-05T04:24:00.289Z,94.05
2022-08-05T04:24:25.043Z,94.06
2022-08-05T04:25:56.638Z,94.08
2022-08-05T04:26:25.302Z,94.07
2022-08-05T04:27:41.793Z,94.07
2022-08-05T04:28:31.034Z,94.09
2022-08-05T04:29:27.177Z,94.10
2022-08-05T04:30:24.806Z,94.09
2022-08-05T04:31:27.637Z,94.10
2022-08-05T04:32:31.083Z,94.15
2022-08-05T04:34:17.623Z,94.19
2022-08-05T04:34:33.743Z,94.22
2022-08-05T04:35:26.449Z,94.27
2022-08-05T04:36:46.121Z,94.30
2022-08-05T04:38:01.090Z,94.31
2022-08-05T04:38:39.604Z,94.32
2022-08-05T04:39:27.517Z,94.29
2022-08-05T04:40:26.119Z,94.26
2022-08-05T04:41:36.730Z,94.22
2022-08-05T04:42:27.455Z,94.21
2022-08-05T04:43:26.528Z,94.19
2022-08-05T04:44:29.917Z,94.19
2022-08-05T04:45:48.322Z,94.21
2022-08-05T04:46:28.672Z,94.25
2022-08-05T04:47:27.278Z,94.27
2022-08-05T04:48:28.521Z,94.31
2022-08-05T04:49:38.498Z,94.24
2022-08-05T04:50:37.228Z,94.10
2022-08-05T04:51:30.613Z,94.04
2022-08-05T04:52:28.140Z,94.01
2022-08-05T04:53:27.797Z,93.95
2022-08-05T04:54:28.948Z,93.94
2022-08-05T04:56:14.922Z,93.98
2022-08-05T04:56:35.096Z,94.00
2022-08-05T04:57:29.690Z,94.05
2022-08-05T04:58:29.487Z,94.09
2022-08-05T04:59:36.797Z,94.10
2022-08-05T05:00:29.836Z,94.19
2022-08-05T05:01:33.604Z,94.21
2022-08-05T05:02:37.402Z,94.10
2022-08-05T05:03:41.966Z,94.08
2022-08-05T05:04:30.248Z,94.11
2022-08-05T05:05:29.500Z,94.11
2022-08-05T05:06:37.051Z,94.13
2022-08-05T05:07:32.878Z,94.07
2022-08-05T05:08:30.935Z,94.05
2022-08-05T05:09:29.835Z,94.02
2022-08-05T05:10:29.966Z,94.03
2022-08-05T05:11:52.869Z,94.11
2022-08-05T05:12:31.236Z,94.21
2022-08-05T05:13:32.438Z,94.24
2022-08-05T05:14:32.303Z,94.28
2022-08-05T05:15:57.087Z,94.32
2022-08-05T05:16:32.017Z,94.36
2022-08-05T05:17:56.433Z,94.39
2022-08-05T05:18:33.895Z,94.44
2022-08-05T05:19:36.765Z,94.45
2022-08-05T05:20:32.283Z,94.43
2022-08-05T05:21:33.099Z,94.38
2022-08-05T05:22:31.575Z,94.29
2022-08-05T05:23:39.476Z,94.28
2022-08-05T05:24:57.109Z,94.30
2022-08-05T05:25:40.990Z,94.29
2022-08-05T05:26:33.185Z,94.34
2022-08-05T05:27:41.720Z,94.36
2022-08-05T05:28:37.406Z,94.40
2022-08-05T05:30:04.479Z,94.36
2022-08-05T05:30:33.695Z,94.31
2022-08-05T05:32:15.757Z,93.28
2022-08-05T05:33:17.042Z,94.34
2022-08-05T05:34:13.166Z,94.35
2022-08-05T05:35:13.336Z,94.37
2022-08-05T05:36:14.625Z,94.38
2022-08-05T05:37:13.595Z,94.37
2022-08-05T05:38:14.187Z,94.37
2022-08-05T05:39:13.835Z,94.34
2022-08-05T05:40:14.015Z,94.34
2022-08-05T05:41:14.195Z,94.35
2022-08-05T05:42:14.201Z,94.33
2022-08-05T05:43:14.335Z,94.35
2022-08-05T05:44:35.980Z,94.40
2022-08-05T05:45:15.767Z,94.46
2022-08-05T05:46:17.221Z,94.49
2022-08-05T05:47:21.769Z,94.52
2022-08-05T05:48:16.278Z,94.52
2022-08-05T05:49:22.854Z,94.53
2022-08-05T05:50:16.465Z,94.52
2022-08-05T05:51:16.162Z,94.53
2022-08-05T05:52:26.393Z,94.53
2022-08-05T05:53:21.110Z,94.56
2022-08-05T05:54:16.786Z,94.59
2022-08-05T05:55:16.122Z,94.56
2022-08-05T05:56:16.021Z,94.52
2022-08-05T05:57:19.395Z,94.53
2022-08-05T05:58:16.283Z,94.47
2022-08-05T05:59:16.402Z,94.38
2022-08-05T06:00:16.811Z,94.36
2022-08-05T06:01:16.680Z,94.39
2022-08-05T06:02:16.948Z,94.36
2022-08-05T06:03:40.255Z,94.32
2022-08-05T06:04:18.138Z,94.29
2022-08-05T06:05:17.439Z,94.32
2022-08-05T06:06:17.339Z,94.36
2022-08-05T06:07:17.571Z,94.38
2022-08-05T06:08:32.448Z,94.37
2022-08-05T06:09:25.793Z,94.30
2022-08-05T06:10:18.867Z,94.22
2022-08-05T06:11:17.977Z,94.21
2022-08-05T06:12:18.340Z,94.20
2022-08-05T06:13:18.373Z,94.23
2022-08-05T06:14:18.380Z,94.28
2022-08-05T06:15:23.909Z,94.28
2022-08-05T06:16:30.168Z,94.34
2022-08-05T06:17:52.463Z,94.38
2022-08-05T06:18:19.869Z,94.41
2022-08-05T06:19:26.283Z,94.47
2022-08-05T06:20:21.703Z,94.54
2022-08-05T06:21:19.247Z,94.56
2022-08-05T06:22:19.466Z,94.55
2022-08-05T06:23:19.527Z,94.56
2022-08-05T06:24:25.786Z,94.57
2022-08-05T06:25:25.339Z,94.63
2022-08-05T06:26:24.964Z,94.65
2022-08-05T06:28:10.872Z,94.67
2022-08-05T06:28:21.921Z,94.73
2022-08-05T06:29:42.838Z,94.76
2022-08-05T06:30:21.532Z,94.78
2022-08-05T06:31:22.048Z,94.75
2022-08-05T06:32:26.090Z,94.70
2022-08-05T06:33:44.406Z,94.69
2022-08-05T06:34:21.964Z,94.67
2022-08-05T06:36:03.031Z,94.68
2022-08-05T06:36:26.047Z,94.72
2022-08-05T06:37:56.818Z,94.71
2022-08-05T06:38:36.745Z,94.73
2022-08-05T06:39:26.911Z,94.80
2022-08-05T06:40:28.107Z,94.86
2022-08-05T06:41:22.784Z,94.92
2022-08-05T06:42:21.986Z,94.82
2022-08-05T06:43:58.329Z,94.74
2022-08-05T06:44:23.151Z,94.69
2022-08-05T06:45:45.008Z,94.70
2022-08-05T06:46:23.433Z,94.69
2022-08-05T06:48:11.802Z,94.72
2022-08-05T06:48:52.887Z,94.66
2022-08-05T06:50:00.310Z,94.61
2022-08-05T06:50:23.914Z,94.65
2022-08-05T06:51:30.245Z,94.68
2022-08-05T06:52:37.336Z,94.61
2022-08-05T06:53:28.408Z,94.57
2022-08-05T06:54:25.842Z,94.56
2022-08-05T06:55:23.580Z,94.56
2022-08-05T06:56:26.369Z,94.52
2022-08-05T06:57:57.270Z,94.47
2022-08-05T06:58:34.882Z,94.29
2022-08-05T06:59:25.001Z,94.26
2022-08-05T07:00:24.666Z,94.37
2022-08-05T07:01:27.633Z,94.46
2022-08-05T07:02:25.371Z,94.53
2022-08-05T07:03:28.152Z,94.51
2022-08-05T07:04:25.850Z,94.46
2022-08-05T07:05:31.840Z,94.41
2022-08-05T07:06:25.869Z,94.28
2022-08-05T07:07:43.102Z,94.02
2022-08-05T07:08:26.132Z,93.99
2022-08-05T07:09:25.256Z,94.01
2022-08-05T07:10:32.319Z,94.09
2022-08-05T07:11:26.520Z,94.24
2022-08-05T07:12:26.639Z,94.40
2022-08-05T07:13:56.888Z,94.48
2022-08-05T07:14:29.206Z,94.43
2022-08-05T07:15:34.790Z,94.38
2022-08-05T07:17:56.886Z,94.39
2022-08-05T07:18:00.753Z,94.37
2022-08-05T07:18:29.987Z,94.21
2022-08-05T07:19:58.010Z,94.23
2022-08-05T07:20:33.488Z,94.37
2022-08-05T07:21:27.748Z,94.39
2022-08-05T07:22:30.081Z,94.46
2022-08-05T07:23:29.698Z,94.52
2022-08-05T07:24:28.719Z,94.38
2022-08-05T07:25:55.120Z,94.35
2022-08-05T07:26:28.347Z,94.29
2022-08-05T07:27:56.634Z,94.32
2022-08-05T07:28:28.604Z,94.35
2022-08-05T07:30:22.858Z,94.33
2022-08-05T07:30:33.449Z,94.35
2022-08-05T07:31:40.787Z,94.23
2022-08-05T07:32:29.094Z,94.27
2022-08-05T07:33:35.027Z,94.34
2022-08-05T07:34:29.305Z,94.41
2022-08-05T07:36:04.970Z,94.41
2022-08-05T07:36:29.673Z,94.41
2022-08-05T07:37:29.106Z,94.49
2022-08-05T07:38:34.192Z,94.42
2022-08-05T07:40:26.088Z,94.30
2022-08-05T07:40:32.426Z,94.27
2022-08-05T07:42:13.011Z,94.31
2022-08-05T07:42:33.588Z,94.28
2022-08-05T07:43:29.464Z,94.34
2022-08-05T07:44:29.566Z,94.30
2022-08-05T07:45:31.293Z,94.32
2022-08-05T07:46:30.951Z,94.36
2022-08-05T07:47:41.943Z,94.27
2022-08-05T07:49:02.195Z,94.29
2022-08-05T07:49:31.123Z,94.39
2022-08-05T07:50:32.484Z,94.43
2022-08-05T07:51:37.308Z,94.43
2022-08-05T07:52:31.476Z,94.38
2022-08-05T07:53:36.977Z,94.44
2022-08-05T07:54:38.563Z,94.32
2022-08-05T07:56:04.825Z,94.38
2022-08-05T07:57:02.526Z,94.39
2022-08-05T07:57:55.276Z,94.44
2022-08-05T07:58:57.601Z,94.51
2022-08-05T07:59:40.167Z,94.46
2022-08-05T08:00:32.468Z,94.52
2022-08-05T08:01:31.632Z,94.58
2022-08-05T08:03:14.756Z,94.62
2022-08-05T08:03:44.132Z,94.62
2022-08-05T08:04:37.462Z,94.43
2022-08-05T08:05:33.090Z,94.42
2022-08-05T08:06:33.190Z,94.47
2022-08-05T08:07:39.713Z,94.41
2022-08-05T08:08:33.590Z,94.45
2022-08-05T08:09:32.559Z,94.48
2022-08-05T08:10:32.702Z,94.56
2022-08-05T08:11:47.853Z,94.56
2022-08-05T08:12:49.486Z,94.60
2022-08-05T08:13:49.251Z,94.64
2022-08-05T08:14:34.220Z,94.69
2022-08-05T08:16:33.709Z,94.71
2022-08-05T08:16:51.029Z,94.75
2022-08-05T08:17:35.367Z,94.64
2022-08-05T08:18:33.733Z,94.60
2022-08-05T08:20:22.275Z,94.65
2022-08-05T08:20:59.850Z,94.63
2022-08-05T08:21:35.092Z,94.60
2022-08-05T08:22:34.191Z,94.50
2022-08-05T08:24:02.637Z,94.43
2022-08-05T08:24:51.397Z,94.50
2022-08-05T08:25:59.979Z,94.52
2022-08-05T08:26:35.635Z,94.62
2022-08-05T08:27:42.327Z,94.65
2022-08-05T08:28:55.047Z,94.70
2022-08-05T08:30:05.466Z,94.80
2022-08-05T08:30:47.353Z,94.91
2022-08-05T08:31:36.265Z,94.87
2022-08-05T08:32:35.416Z,94.84
2022-08-05T08:33:37.825Z,94.94
2022-08-05T08:34:35.694Z,94.92
2022-08-05T08:35:41.100Z,94.93
2022-08-05T08:36:49.060Z,95.00
2022-08-05T08:37:37.026Z,95.08
2022-08-05T08:38:37.881Z,95.15
2022-08-05T08:39:37.377Z,95.20
2022-08-05T08:40:36.614Z,95.19
2022-08-05T08:41:50.608Z,95.21
2022-08-05T08:42:46.713Z,95.22
2022-08-05T08:45:22.721Z,95.26
2022-08-05T08:45:24.013Z,95.27
2022-08-05T08:45:38.058Z,95.22
2022-08-05T08:46:37.244Z,95.11
2022-08-05T08:48:06.847Z,94.99
2022-08-05T08:49:02.903Z,94.95
2022-08-05T08:50:06.178Z,94.69
2022-08-05T08:51:03.847Z,94.57
2022-08-05T08:52:03.025Z,94.56
2022-08-05T08:52:38.880Z,94.64
2022-08-05T08:53:37.973Z,94.72
2022-08-05T08:54:39.083Z,94.73
2022-08-05T08:56:02.948Z,94.59
2022-08-05T08:56:39.664Z,94.56
2022-08-05T08:57:48.182Z,94.63
2022-08-05T08:58:44.532Z,94.74
2022-08-05T08:59:41.806Z,94.80
2022-08-05T09:00:39.858Z,94.94
2022-08-05T09:01:42.579Z,95.04
2022-08-05T09:02:39.011Z,94.97
2022-08-05T09:03:40.355Z,94.89
2022-08-05T09:04:58.386Z,94.88
2022-08-05T09:06:07.582Z,94.87
2022-08-05T09:06:40.605Z,94.91
2022-08-05T09:07:56.996Z,94.91
2022-08-05T09:08:40.759Z,94.93
2022-08-05T09:09:39.873Z,95.01
2022-08-05T09:10:40.232Z,95.05
2022-08-05T09:11:51.025Z,95.08
2022-08-05T09:12:41.240Z,95.02
2022-08-05T09:14:00.793Z,94.73
2022-08-05T09:14:57.071Z,94.68
2022-08-05T09:15:41.539Z,94.69
2022-08-05T09:16:40.668Z,94.81
2022-08-05T09:17:45.742Z,95.02
2022-08-05T09:18:42.919Z,95.24
2022-08-05T09:20:01.712Z,95.26
2022-08-05T09:20:42.176Z,95.26
2022-08-05T09:22:22.942Z,95.19
2022-08-05T09:22:42.608Z,95.10
2022-08-05T09:23:43.843Z,95.01
2022-08-05T09:24:41.738Z,94.87
2022-08-05T09:26:03.017Z,94.88
2022-08-05T09:26:43.758Z,95.01
2022-08-05T09:28:04.857Z,95.13
2022-08-05T09:28:43.286Z,95.19
2022-08-05T09:29:47.712Z,94.91
2022-08-05T09:30:43.466Z,94.83
2022-08-05T09:32:42.251Z,94.84
2022-08-05T09:32:46.907Z,94.88
2022-08-05T09:33:42.936Z,94.76
2022-08-05T09:34:43.015Z,94.61
2022-08-05T09:35:43.130Z,94.56
2022-08-05T09:36:45.661Z,94.65
2022-08-05T09:38:12.631Z,94.77
2022-08-05T09:38:44.473Z,94.73
2022-08-05T09:39:46.913Z,94.70
2022-08-05T09:40:52.425Z,94.74
2022-08-05T09:41:44.866Z,94.59
2022-08-05T09:42:44.983Z,94.68
2022-08-05T09:43:44.083Z,94.71
2022-08-05T09:44:45.375Z,94.83
2022-08-05T09:46:07.083Z,94.92
2022-08-05T09:46:51.630Z,94.77
2022-08-05T09:47:55.139Z,94.64
2022-08-05T09:48:55.396Z,94.27
2022-08-05T09:50:00.920Z,93.81
2022-08-05T09:50:46.026Z,93.78
2022-08-05T09:51:45.032Z,93.78
2022-08-05T09:52:46.211Z,93.45
2022-08-05T09:53:54.819Z,92.84
2022-08-05T09:54:46.422Z,92.93
2022-08-05T09:55:56.289Z,92.62
2022-08-05T09:56:51.482Z,92.26
2022-08-05T09:57:46.751Z,92.08
2022-08-05T09:58:45.881Z,92.02
2022-08-05T09:59:46.154Z,92.50
2022-08-05T10:00:46.171Z,91.99
2022-08-05T10:01:46.386Z,91.27
2022-08-05T10:02:46.432Z,90.52
2022-08-05T10:03:59.575Z,89.83
2022-08-05T10:04:47.682Z,89.43
2022-08-05T10:05:46.751Z,90.16
2022-08-05T10:06:54.762Z,89.96
2022-08-05T10:08:34.737Z,89.64
2022-08-05T10:08:54.026Z,89.83
2022-08-05T10:09:48.294Z,89.53
2022-08-05T10:10:48.471Z,89.99
2022-08-05T10:11:48.532Z,89.78
2022-08-05T10:12:49.235Z,90.40
2022-08-05T10:13:49.194Z,90.74
2022-08-05T10:14:47.870Z,90.08
2022-08-05T10:15:48.069Z,89.77
2022-08-05T10:16:52.337Z,88.71
2022-08-05T10:17:56.555Z,87.73
2022-08-05T10:18:49.350Z,89.62
2022-08-05T10:20:03.577Z,89.48
2022-08-05T10:20:49.748Z,88.73
2022-08-05T10:21:48.671Z,87.65
2022-08-05T10:22:51.079Z,87.96
2022-08-05T10:23:56.113Z,87.79
2022-08-05T10:24:50.657Z,88.57
2022-08-05T10:25:49.198Z,89.13
2022-08-05T10:26:51.935Z,85.41
2022-08-05T10:28:13.458Z,85.82
2022-08-05T10:28:50.638Z,85.43
2022-08-05T10:30:06.452Z,86.33
2022-08-05T10:32:49.269Z,86.23
2022-08-05T10:32:51.790Z,85.71
2022-08-05T10:32:59.422Z,86.65
2022-08-05T10:33:54.193Z,86.08
2022-08-05T10:34:50.439Z,86.57
2022-08-05T10:35:58.975Z,86.52
2022-08-05T10:36:51.555Z,87.52
2022-08-05T10:37:50.679Z,88.23
2022-08-05T10:38:50.819Z,88.87
2022-08-05T10:40:03.496Z,87.66
2022-08-05T10:40:52.187Z,87.97
2022-08-05T10:41:52.256Z,88.52
2022-08-05T10:42:51.448Z,87.36
2022-08-05T10:43:51.526Z,87.93
2022-08-05T10:44:51.751Z,87.66
2022-08-05T10:45:51.740Z,88.39
2022-08-05T10:46:54.028Z,85.26
2022-08-05T10:48:30.600Z,85.45
2022-08-05T10:48:58.868Z,83.59
2022-08-05T10:50:32.146Z,81.76
2022-08-05T10:50:53.345Z,83.23
2022-08-05T10:51:59.823Z,83.31
2022-08-05T10:52:53.595Z,82.10
2022-08-05T10:53:54.491Z,81.89
2022-08-05T10:54:56.997Z,83.97
2022-08-05T10:56:05.100Z,83.00
2022-08-05T10:56:54.145Z,82.48
2022-08-05T10:57:53.266Z,80.30
2022-08-05T10:58:53.425Z,82.36
2022-08-05T11:00:03.709Z,80.58
2022-08-05T11:00:55.346Z,79.41
2022-08-05T11:02:05.062Z,79.48
2022-08-05T11:02:54.942Z,82.79
2022-08-05T11:03:54.124Z,83.25
2022-08-05T11:04:54.224Z,79.67
2022-08-05T11:05:54.315Z,80.43
2022-08-05T11:06:55.423Z,81.73
2022-08-05T11:08:01.776Z,80.26
2022-08-05T11:08:55.665Z,75.02
2022-08-05T11:10:04.035Z,75.73
2022-08-05T11:11:00.981Z,78.95
2022-08-05T11:11:56.082Z,76.05
2022-08-05T11:12:55.713Z,75.98
2022-08-05T11:13:58.210Z,76.77
2022-08-05T11:15:11.883Z,75.40
2022-08-05T11:16:00.155Z,72.33
2022-08-05T11:16:59.340Z,74.02
2022-08-05T11:18:07.474Z,72.84
2022-08-05T11:18:56.924Z,73.43
2022-08-05T11:20:11.258Z,73.07
2022-08-05T11:20:57.253Z,74.20
2022-08-05T11:21:56.232Z,76.63
2022-08-05T11:23:01.983Z,70.85
2022-08-05T11:24:04.240Z,68.81
2022-08-05T11:25:16.361Z,75.20
2022-08-05T11:26:04.838Z,69.78
2022-08-05T11:26:57.898Z,70.54
2022-08-05T11:28:00.427Z,69.73
2022-08-05T11:28:57.122Z,66.55
2022-08-05T11:29:57.234Z,65.32
2022-08-05T11:30:58.339Z,68.58
2022-08-05T11:32:01.105Z,70.99
2022-08-05T11:32:57.564Z,70.85
2022-08-05T11:33:57.733Z,70.04
2022-08-05T11:34:57.846Z,66.97
2022-08-05T11:36:07.897Z,68.27
2022-08-05T11:36:59.210Z,67.92
2022-08-05T11:38:37.005Z,66.76
2022-08-05T11:38:59.692Z,67.94
2022-08-05T11:40:03.186Z,69.07
2022-08-05T11:41:03.609Z,70.52
2022-08-05T11:42:04.225Z,69.06
2022-08-05T11:42:58.833Z,69.28
2022-08-05T11:44:05.380Z,68.87
2022-08-05T11:45:00.049Z,68.77
2022-08-05T11:46:30.870Z,67.47
2022-08-05T11:47:11.708Z,67.66
2022-08-05T11:48:00.470Z,67.98
2022-08-05T11:48:59.620Z,67.47
2022-08-05T11:49:59.751Z,68.93
2022-08-05T11:50:59.912Z,65.40
2022-08-05T11:52:00.204Z,64.89
2022-08-05T11:53:00.271Z,67.46
2022-08-05T11:54:00.286Z,65.12
2022-08-05T11:55:07.291Z,65.33
2022-08-05T11:56:01.521Z,65.90
2022-08-05T11:57:00.662Z,66.01
2022-08-05T11:58:10.224Z,67.67
2022-08-05T11:59:01.881Z,66.60
2022-08-05T12:00:01.012Z,72.46
2022-08-05T12:01:01.130Z,71.68
2022-08-05T12:02:01.241Z,71.18
2022-08-05T12:03:01.458Z,70.89
2022-08-05T12:04:01.564Z,70.83
2022-08-05T12:05:07.540Z,70.40
2022-08-05T12:06:02.725Z,70.94
2022-08-05T12:07:01.914Z,66.79
2022-08-05T12:08:09.590Z,67.48
2022-08-05T12:09:03.218Z,65.62
2022-08-05T12:10:09.179Z,65.93
2022-08-05T12:11:04.146Z,65.19
2022-08-05T12:12:02.611Z,66.35
2022-08-05T12:13:02.634Z,69.99
2022-08-05T12:14:04.013Z,66.82
2022-08-05T12:15:02.819Z,64.68
2022-08-05T12:16:02.920Z,64.97
2022-08-05T12:17:04.090Z,63.08
2022-08-05T12:18:10.668Z,62.61
2022-08-05T12:19:04.731Z,63.16
2022-08-05T12:20:26.677Z,64.28
2022-08-05T12:21:04.510Z,63.35
2022-08-05T12:22:03.651Z,63.79
2022-08-05T12:23:04.770Z,64.27
2022-08-05T12:24:04.479Z,65.69
2022-08-05T12:25:04.113Z,63.22
2022-08-05T12:26:04.131Z,68.36
2022-08-05T12:27:09.903Z,66.34
2022-08-05T12:28:05.390Z,64.65
2022-08-05T12:29:04.458Z,62.87
2022-08-05T12:30:04.796Z,60.29
2022-08-05T12:31:04.730Z,60.12
2022-08-05T12:32:04.878Z,59.68
2022-08-05T12:33:07.501Z,60.09
2022-08-05T12:34:06.078Z,63.81
2022-08-05T12:35:05.359Z,61.19
2022-08-05T12:36:07.900Z,60.17
2022-08-05T12:37:05.597Z,60.89
2022-08-05T12:38:05.598Z,64.45
2022-08-05T12:39:05.714Z,62.10
2022-08-05T12:40:10.495Z,61.30
2022-08-05T12:41:12.297Z,59.85
2022-08-05T12:42:08.304Z,59.59
2022-08-05T12:43:06.168Z,61.32
2022-08-05T12:44:06.328Z,62.01
2022-08-05T12:45:09.408Z,58.71
2022-08-05T12:46:06.577Z,58.09
2022-08-05T12:47:07.716Z,57.37
2022-08-05T12:48:26.828Z,57.32
2022-08-05T12:49:13.879Z,57.29
2022-08-05T12:50:08.210Z,57.84
2022-08-05T12:51:07.217Z,56.68
2022-08-05T12:52:12.570Z,56.65
2022-08-05T12:53:08.387Z,56.43
2022-08-05T12:54:16.959Z,55.44
2022-08-05T12:55:08.818Z,55.59